Time;durP1;ratioP1;P1;durP2;ratioP2;P2;SDS_P1;SDS_P2;PMS_P1;PMS_P2;Temp;Humidity;BMP_temperature;BMP_pressure;BME280_temperature;BME280_humidity;BME280_pressure;Samples;Min_cycle;Max_cycle;Signal;HPM_P1;HPM_P2
2021/12/17 00:04:49;;;;;;;44.30;19.95;;;8.30;99.90;;;;;;5093868;28;20081;-76
2021/12/17 00:07:15;;;;;;;64.70;26.23;;;8.40;99.90;;;;;;5076375;28;20044;-77
2021/12/17 00:09:43;;;;;;;82.30;29.88;;;9.70;99.90;;;;;;5093175;28;20052;-77
2021/12/17 00:12:11;;;;;;;46.05;20.33;;;8.10;99.90;;;;;;5092271;28;20069;-76
2021/12/17 00:14:39;;;;;;;43.22;19.23;;;9.30;99.90;;;;;;5093517;28;20035;-77
2021/12/17 00:17:09;;;;;;;52.92;22.63;;;8.40;99.90;;;;;;5094985;28;20051;-78
2021/12/17 00:19:58;;;;;;;76.85;29.48;;;9.40;99.90;;;;;;5095272;28;20088;-77
2021/12/17 00:49:35;;;;;;;143.43;41.65;;;9.50;99.90;;;;;;5081052;28;20071;-76
2021/12/17 00:52:02;;;;;;;57.97;25.70;;;8.40;99.90;;;;;;5077778;28;20119;-75
2021/12/17 00:54:38;;;;;;;62.00;26.38;;;8.40;99.90;;;;;;5073907;28;20071;-75
2021/12/17 00:57:15;;;;;;;52.53;24.75;;;8.50;99.90;;;;;;5073941;28;20040;-75
2021/12/17 00:59:47;;;;;;;91.72;31.05;;;11.00;99.90;;;;;;5079424;28;20054;-75
2021/12/17 01:02:16;;;;;;;74.18;27.27;;;8.40;99.90;;;;;;5093894;28;20096;-76
2021/12/17 01:04:49;;;;;;;118.10;35.92;;;10.40;99.90;;;;;;5093805;28;20518;-77
2021/12/17 01:07:18;;;;;;;75.93;31.42;;;8.70;99.90;;;;;;5094721;28;20066;-76
2021/12/17 01:09:45;;;;;;;51.58;25.10;;;8.80;99.90;;;;;;5093518;28;20051;-75
2021/12/17 01:12:12;;;;;;;89.85;34.08;;;8.30;99.90;;;;;;5077438;28;20044;-76
2021/12/17 01:14:40;;;;;;;74.90;33.30;;;8.30;99.90;;;;;;5094446;28;20085;-75
2021/12/17 01:17:08;;;;;;;62.45;29.05;;;8.10;99.90;;;;;;5093425;28;20096;-76
2021/12/17 01:24:56;;;;;;;68.70;28.15;;;8.40;99.90;;;;;;5094057;28;20096;-76
2021/12/17 01:35:39;;;;;;;72.50;30.85;;;8.40;99.90;;;;;;5094075;28;20043;-77
2021/12/17 01:41:38;;;;;;;129.63;42.92;;;11.80;99.90;;;;;;5094481;28;20400;-76
2021/12/17 01:43:44;;;;;;;72.68;32.05;;;8.80;99.90;;;;;;5089141;28;20123;-77
2021/12/17 01:46:12;;;;;;;66.70;28.77;;;9.30;99.90;;;;;;5093774;28;20126;-77
2021/12/17 01:48:57;;;;;;;63.03;28.35;;;8.40;99.90;;;;;;5093912;28;20076;-77
2021/12/17 01:59:17;;;;;;;43.80;21.77;;;8.20;99.90;;;;;;5094201;28;20398;-77
2021/12/17 01:59:44;;;;;;;51.28;23.40;;;8.30;99.90;;;;;;5073431;28;20128;-76
2021/12/17 02:02:10;;;;;;;46.05;21.77;;;8.30;99.90;;;;;;5071984;28;20057;-76
2021/12/17 02:04:37;;;;;;;65.82;26.13;;;7.80;99.90;;;;;;5093888;28;20089;-77
2021/12/17 02:07:04;;;;;;;41.53;19.95;;;8.40;99.90;;;;;;5092662;28;20488;-76
2021/12/17 02:20:09;;;;;;;37.10;20.73;;;8.60;99.90;;;;;;5097327;28;20096;-76
2021/12/17 02:31:23;;;;;;;;;;;8.50;99.90;;;;;;5094325;28;20409;-77
2021/12/17 02:33:48;;;;;;;33.13;17.02;;;8.70;99.90;;;;;;5127936;27;19959;-77
2021/12/17 02:36:17;;;;;;;39.00;19.05;;;8.70;99.90;;;;;;5096702;28;20073;-75
2021/12/17 02:38:44;;;;;;;47.75;21.27;;;8.30;99.90;;;;;;5097084;28;20039;-75
2021/12/17 02:46:39;;;;;;;60.97;27.45;;;8.60;99.90;;;;;;5097058;28;20039;-77
2021/12/17 02:49:07;;;;;;;34.80;17.63;;;8.70;99.90;;;;;;5130242;27;20135;-76
2021/12/17 02:51:32;;;;;;;38.10;18.55;;;8.50;99.90;;;;;;5096763;28;20056;-77
2021/12/17 02:53:59;;;;;;;46.22;20.08;;;;;;;;;;5078705;28;20031;-76
2021/12/17 02:56:25;;;;;;;37.63;19.27;;;;;;;;;;5076900;28;20089;-76
2021/12/17 02:58:53;;;;;;;38.10;19.45;;;8.50;99.90;;;;;;5093356;28;20039;-77
2021/12/17 03:01:19;;;;;;;42.25;21.00;;;11.30;99.90;;;;;;5095519;28;20047;-77
2021/12/17 03:03:50;;;;;;;58.45;22.10;;;8.50;99.90;;;;;;5080091;28;20035;-77
2021/12/17 03:06:16;;;;;;;51.65;20.98;;;;;;;;;;5096136;28;20086;-76
2021/12/17 03:08:46;;;;;;;50.80;20.00;;;8.50;99.90;;;;;;5079515;28;20047;-77
2021/12/17 03:11:11;;;;;;;63.42;23.30;;;8.70;99.90;;;;;;5095895;28;20062;-77
2021/12/17 03:13:38;;;;;;;49.70;18.50;;;8.40;99.90;;;;;;5113268;28;20032;-78
2021/12/17 03:16:24;;;;;;;68.15;24.38;;;8.50;99.90;;;;;;5078710;28;20042;-76
2021/12/17 03:24:00;;;;;;;66.20;20.90;;;8.80;99.90;;;;;;5109302;28;20047;-77
2021/12/17 03:26:27;;;;;;;63.03;20.92;;;9.30;99.90;;;;;;5075903;28;20055;-78
2021/12/17 03:28:55;;;;;;;61.63;20.55;;;8.50;99.90;;;;;;5102286;28;20140;-81
2021/12/17 03:31:22;;;;;;;56.03;19.63;;;8.40;99.90;;;;;;5079023;28;20040;-77
2021/12/17 03:33:50;;;;;;;52.72;20.00;;;8.60;99.90;;;;;;5079021;28;20043;-78
2021/12/17 03:36:18;;;;;;;52.08;19.80;;;8.40;99.90;;;;;;5095701;28;20118;-76
2021/12/17 03:38:46;;;;;;;57.65;19.75;;;8.30;99.90;;;;;;5096471;28;20097;-75
2021/12/17 03:43:41;;;;;;;50.67;17.85;;;8.30;99.90;;;;;;5094966;28;20120;-77
2021/12/17 03:46:07;;;;;;;40.17;17.80;;;8.40;99.90;;;;;;5078230;28;20071;-77
2021/12/17 03:48:37;;;;;;;47.80;18.63;;;8.90;99.90;;;;;;5095594;28;20050;-76
2021/12/17 03:51:03;;;;;;;51.05;18.33;;;8.10;99.90;;;;;;5094861;28;20163;-76
2021/12/17 03:53:29;;;;;;;40.97;16.10;;;11.50;99.90;;;;;;5095120;28;20046;-77
2021/12/17 03:55:55;;;;;;;51.28;17.80;;;8.60;99.90;;;;;;5095804;28;20114;-77
2021/12/17 03:58:21;;;;;;;40.90;16.88;;;;;;;;;;5112691;28;20038;-77
2021/12/17 04:00:47;;;;;;;56.03;20.75;;;;;;;;;;5095461;28;20035;-77
2021/12/17 04:03:13;;;;;;;41.97;16.88;;;8.20;99.90;;;;;;5095382;28;20039;-76
2021/12/17 04:05:41;;;;;;;53.88;20.48;;;8.60;99.90;;;;;;5095436;28;20036;-77
2021/12/17 04:08:07;;;;;;;41.38;15.15;;;8.50;99.90;;;;;;5077831;28;20503;-76
2021/12/17 04:10:41;;;;;;;69.30;22.13;;;11.30;99.90;;;;;;5129646;27;20047;-77
2021/12/17 04:16:07;;;;;;;67.33;22.63;;;8.10;99.90;;;;;;5081452;28;20096;-76
2021/12/17 04:18:34;;;;;;;78.13;24.23;;;8.30;99.90;;;;;;5078419;28;20273;-76
2021/12/17 04:21:02;;;;;;;34.60;14.77;;;8.30;99.90;;;;;;5094925;28;20047;-76
2021/12/17 04:23:28;;;;;;;64.93;21.13;;;12.30;99.90;;;;;;5095197;28;20054;-76
2021/12/17 04:25:54;;;;;;;40.28;15.90;;;8.80;99.90;;;;;;5094490;28;20046;-76
2021/12/17 04:28:21;;;;;;;47.67;17.50;;;9.60;99.90;;;;;;5077365;28;20130;-77
2021/12/17 04:30:47;;;;;;;42.42;15.93;;;8.30;99.90;;;;;;5095097;28;20434;-77
2021/12/17 04:33:17;;;;;;;37.50;13.60;;;8.20;99.90;;;;;;5094412;28;20074;-76
2021/12/17 04:35:43;;;;;;;33.05;12.98;;;8.00;99.90;;;;;;5078241;28;20054;-76
2021/12/17 04:38:11;;;;;;;41.78;14.38;;;8.20;99.90;;;;;;5094325;28;20039;-76
2021/12/17 04:40:40;;;;;;;27.13;11.05;;;8.40;99.90;;;;;;5094864;28;20085;-75
2021/12/17 04:45:36;;;;;;;45.33;15.32;;;8.30;99.90;;;;;;5094824;28;20052;-76
2021/12/17 04:58:58;;;;;;;48.97;15.80;;;8.60;99.90;;;;;;5093931;28;20043;-76
2021/12/17 05:01:24;;;;;;;36.38;11.25;;;8.00;99.90;;;;;;5094113;28;20093;-76
2021/12/17 05:03:50;;;;;;;37.30;12.55;;;8.20;99.90;;;;;;5070465;28;20032;-76
2021/12/17 05:06:18;;;;;;;36.35;14.18;;;8.40;99.90;;;;;;5072050;28;20119;-76
2021/12/17 05:08:43;;;;;;;23.40;10.63;;;8.30;99.90;;;;;;5090366;28;20056;-76
2021/12/17 05:19:51;;;;;;;32.45;12.68;;;8.30;99.90;;;;;;5093951;28;20050;-76
2021/12/17 05:21:56;;;;;;;29.95;12.10;;;8.20;99.90;;;;;;5072939;28;20413;-75
2021/12/17 05:24:22;;;;;;;33.40;14.07;;;8.20;99.90;;;;;;5090828;28;20048;-75
2021/12/17 05:26:47;;;;;;;26.52;12.75;;;8.00;99.90;;;;;;5098601;28;20369;-75
2021/12/17 05:29:13;;;;;;;34.00;12.75;;;9.10;99.90;;;;;;5076452;28;20047;-76
2021/12/17 05:31:39;;;;;;;33.35;12.45;;;9.60;99.90;;;;;;5077499;28;20119;-76
2021/12/17 05:34:04;;;;;;;27.17;10.80;;;7.90;99.90;;;;;;5093587;28;20106;-75
2021/12/17 05:36:30;;;;;;;29.15;12.15;;;8.70;99.90;;;;;;5065419;28;20531;-75
2021/12/17 05:38:56;;;;;;;38.08;14.02;;;7.90;99.90;;;;;;5090894;28;20051;-76
2021/12/17 05:41:21;;;;;;;29.83;12.57;;;8.40;99.90;;;;;;5124973;28;20040;-76
2021/12/17 05:43:55;;;;;;;43.45;15.18;;;8.20;99.90;;;;;;5093314;28;20412;-76
2021/12/17 05:46:24;;;;;;;24.75;10.88;;;8.10;99.90;;;;;;5094310;28;20404;-74
2021/12/17 05:48:50;;;;;;;27.58;12.18;;;8.30;99.90;;;;;;5093990;28;20046;-75
2021/12/17 05:51:15;;;;;;;27.38;11.85;;;8.20;99.90;;;;;;5127951;27;20039;-74
2021/12/17 05:53:41;;;;;;;30.83;13.75;;;;;;;;;;5098575;28;20044;-75
2021/12/17 05:56:07;;;;;;;25.05;11.63;;;8.40;99.90;;;;;;5079836;28;20038;-74
2021/12/17 05:58:33;;;;;;;36.33;14.90;;;8.70;99.90;;;;;;5114431;28;20480;-74
2021/12/17 06:00:59;;;;;;;36.35;15.55;;;8.60;99.90;;;;;;5131593;27;20373;-74
2021/12/17 06:03:25;;;;;;;22.33;11.07;;;8.20;99.90;;;;;;5132173;27;20043;-73
2021/12/17 06:05:51;;;;;;;25.05;12.05;;;8.40;99.90;;;;;;5091199;28;20123;-73
2021/12/17 06:08:16;;;;;;;37.13;14.43;;;8.10;99.90;;;;;;5094080;28;20082;-73
2021/12/17 06:10:42;;;;;;;29.65;13.77;;;;;;;;;;5109593;28;20044;-73
2021/12/17 06:13:08;;;;;;;44.20;16.25;;;8.20;99.90;;;;;;5079715;28;20032;-73
2021/12/17 06:15:34;;;;;;;34.97;13.63;;;8.60;99.90;;;;;;5076337;28;20472;-74
2021/12/17 06:17:59;;;;;;;28.27;12.00;;;8.30;99.90;;;;;;5096842;28;20043;-74
2021/12/17 06:20:25;;;;;;;25.35;11.98;;;9.50;99.90;;;;;;5091343;28;20078;-74
2021/12/17 06:22:52;;;;;;;40.72;14.40;;;8.10;99.90;;;;;;5094229;28;20040;-74
2021/12/17 06:25:19;;;;;;;41.45;14.90;;;11.40;99.90;;;;;;5076585;28;20133;-74
2021/12/17 06:27:44;;;;;;;27.85;12.23;;;8.20;99.90;;;;;;5094497;28;20484;-74
2021/12/17 06:30:13;;;;;;;27.55;11.68;;;8.20;99.90;;;;;;5096963;28;20069;-74
2021/12/17 06:32:39;;;;;;;32.40;14.23;;;8.70;99.90;;;;;;5096832;28;20031;-75
2021/12/17 06:35:06;;;;;;;29.73;11.50;;;7.90;99.90;;;;;;5079521;28;20911;-73
2021/12/17 06:37:33;;;;;;;61.33;18.67;;;8.30;99.90;;;;;;5097559;28;20039;-76
2021/12/17 06:39:59;;;;;;;32.42;12.57;;;8.30;99.90;;;;;;5096254;28;20148;-76
2021/12/17 06:42:26;;;;;;;39.25;16.20;;;8.20;99.90;;;;;;5096454;28;20470;-76
2021/12/17 06:44:56;;;;;;;39.63;15.20;;;8.30;99.90;;;;;;5097136;28;20035;-75
2021/12/17 06:47:31;;;;;;;32.45;14.40;;;;;;;;;;5095980;28;20100;-74
2021/12/17 07:11:54;;;;;;;33.28;14.57;;;8.50;99.90;;;;;;5096502;28;20051;-74
2021/12/17 07:32:36;;;;;;;34.95;14.43;;;8.10;99.90;;;;;;5094869;28;20047;-74
2021/12/17 07:35:25;;;;;;;28.90;12.85;;;;;;;;;;5095652;28;20082;-75
2021/12/17 07:40:34;;;;;;;31.50;14.88;;;8.30;99.90;;;;;;5095843;28;20515;-75
2021/12/17 07:43:04;;;;;;;26.95;13.48;;;;;;;;;;5095399;28;20450;-77
2021/12/17 07:45:30;;;;;;;32.33;13.27;;;8.30;99.90;;;;;;5088737;28;20044;-75
2021/12/17 07:47:55;;;;;;;32.80;13.90;;;8.30;99.90;;;;;;5111125;28;20040;-75
2021/12/17 07:50:21;;;;;;;25.80;12.57;;;8.40;99.90;;;;;;5095198;28;20036;-75
2021/12/17 07:52:47;;;;;;;31.92;12.75;;;8.30;99.90;;;;;;5095603;28;20043;-75
2021/12/17 07:55:13;;;;;;;26.80;11.88;;;8.20;99.90;;;;;;5095565;28;20043;-74
2021/12/17 07:57:38;;;;;;;28.80;12.48;;;8.30;99.90;;;;;;5094957;28;20164;-75
2021/12/17 08:00:07;;;;;;;27.13;12.68;;;8.40;99.90;;;;;;5089320;28;20051;-74
2021/12/17 08:02:33;;;;;;;34.83;13.98;;;8.20;99.90;;;;;;5093460;28;20039;-75
2021/12/17 08:04:59;;;;;;;26.88;12.73;;;8.30;99.90;;;;;;5094587;28;20126;-75
2021/12/17 08:07:25;;;;;;;26.25;14.18;;;;;;;;;;5078941;28;20365;-75
2021/12/17 08:09:50;;;;;;;23.73;11.77;;;8.40;99.90;;;;;;5095013;28;20039;-75
2021/12/17 08:12:17;;;;;;;26.40;13.32;;;8.30;99.90;;;;;;5078080;28;20036;-75
2021/12/17 08:14:43;;;;;;;28.77;11.20;;;9.70;99.90;;;;;;5094932;28;20503;-75
2021/12/17 08:17:40;;;;;;;28.30;12.27;;;8.70;99.90;;;;;;5094266;28;20043;-75
2021/12/17 08:28:18;;;;;;;27.02;13.23;;;8.40;99.90;;;;;;5049969;28;20148;-74
2021/12/17 08:30:44;;;;;;;23.70;13.45;;;8.30;99.90;;;;;;5049419;28;20059;-75
2021/12/17 08:33:10;;;;;;;27.63;13.75;;;8.70;99.90;;;;;;5107898;28;20040;-75
2021/12/17 08:35:37;;;;;;;33.15;15.15;;;8.70;99.90;;;;;;5074601;28;20066;-75
2021/12/17 08:38:06;;;;;;;26.95;14.02;;;8.50;99.90;;;;;;5057711;28;20403;-75
2021/12/17 08:40:33;;;;;;;27.80;13.27;;;8.40;99.90;;;;;;5074032;28;20537;-75
2021/12/17 08:43:01;;;;;;;25.42;12.43;;;8.20;99.90;;;;;;5094121;28;20039;-75
2021/12/17 08:45:27;;;;;;;30.48;14.48;;;;;;;;;;5076638;28;20102;-75
2021/12/17 08:47:52;;;;;;;28.67;14.55;;;8.30;99.90;;;;;;5093490;28;20557;-75
2021/12/17 08:50:19;;;;;;;28.15;13.15;;;;;;;;;;5077236;28;20039;-75
2021/12/17 08:52:46;;;;;;;23.98;12.98;;;8.20;99.90;;;;;;5093403;28;20036;-75
2021/12/17 08:55:12;;;;;;;30.23;14.32;;;8.50;99.90;;;;;;5094512;28;20040;-75
2021/12/17 08:57:39;;;;;;;24.13;13.50;;;8.50;99.90;;;;;;5095041;28;20105;-75
2021/12/17 09:00:08;;;;;;;26.45;13.18;;;8.60;99.90;;;;;;5093269;28;20043;-75
2021/12/17 09:02:36;;;;;;;21.63;12.80;;;8.60;99.90;;;;;;5077810;28;20131;-75
2021/12/17 09:05:03;;;;;;;22.25;12.48;;;10.10;99.90;;;;;;5076938;28;20044;-75
2021/12/17 09:07:28;;;;;;;29.80;13.07;;;8.60;99.90;;;;;;5093912;28;20054;-75
2021/12/17 09:09:54;;;;;;;26.73;14.60;;;8.60;99.90;;;;;;5092889;28;20118;-75
2021/12/17 09:12:20;;;;;;;26.15;14.43;;;8.70;99.90;;;;;;5086336;28;20043;-75
2021/12/17 09:14:45;;;;;;;26.23;13.57;;;8.70;99.90;;;;;;5126871;28;20036;-75
2021/12/17 09:17:11;;;;;;;27.02;14.60;;;8.80;99.90;;;;;;5094349;28;20044;-74
2021/12/17 09:19:37;;;;;;;28.38;14.77;;;8.80;99.90;;;;;;5093903;28;20495;-78
2021/12/17 09:22:03;;;;;;;27.35;13.45;;;9.10;99.90;;;;;;5093439;28;20043;-75
2021/12/17 09:24:29;;;;;;;25.08;13.20;;;8.40;99.90;;;;;;5077485;28;20036;-76
2021/12/17 09:26:55;;;;;;;21.88;13.25;;;8.70;99.90;;;;;;5088068;28;20036;-72
2021/12/17 09:29:21;;;;;;;32.47;15.55;;;8.90;99.90;;;;;;5095296;28;20051;-76
2021/12/17 09:31:46;;;;;;;33.88;16.67;;;8.70;99.90;;;;;;5075930;28;20515;-76
2021/12/17 09:34:12;;;;;;;27.30;15.13;;;8.90;99.90;;;;;;5109748;28;20036;-74
2021/12/17 09:36:38;;;;;;;25.23;13.90;;;8.70;99.90;;;;;;5109187;28;20514;-75
2021/12/17 09:39:04;;;;;;;30.70;15.45;;;8.60;99.90;;;;;;5092386;28;20036;-77
2021/12/17 09:41:30;;;;;;;29.20;14.65;;;;;;;;;;5076314;28;20058;-77
2021/12/17 09:43:55;;;;;;;28.23;14.73;;;8.50;99.90;;;;;;5092985;28;20059;-73
2021/12/17 09:46:22;;;;;;;22.70;11.73;;;9.00;99.90;;;;;;5079107;28;20043;-75
2021/12/17 09:48:49;;;;;;;21.13;13.00;;;8.90;99.90;;;;;;5077988;28;20046;-74
2021/12/17 09:51:18;;;;;;;25.33;13.63;;;8.90;99.90;;;;;;5075686;28;20086;-74
2021/12/17 09:53:45;;;;;;;22.65;13.27;;;9.00;99.90;;;;;;5090146;28;20043;-72
2021/12/17 09:56:11;;;;;;;24.35;11.80;;;8.90;99.90;;;;;;5094183;28;20074;-72
2021/12/17 09:58:37;;;;;;;25.17;13.15;;;8.50;99.90;;;;;;5095416;28;20493;-71
2021/12/17 10:01:04;;;;;;;21.15;11.50;;;9.00;99.90;;;;;;5094912;28;20058;-73
2021/12/17 10:03:29;;;;;;;26.77;14.10;;;9.00;99.90;;;;;;5077212;28;20087;-74
2021/12/17 10:05:56;;;;;;;21.73;10.50;;;;;;;;;;5094464;28;20048;-76
2021/12/17 10:08:23;;;;;;;21.55;10.65;;;9.20;99.90;;;;;;5077697;28;20043;-77
2021/12/17 10:10:58;;;;;;;20.33;10.27;;;9.40;99.90;;;;;;5094814;28;20047;-76
2021/12/17 10:13:32;;;;;;;19.50;10.77;;;9.40;99.90;;;;;;5096269;28;20139;-76
2021/12/17 10:16:06;;;;;;;18.75;10.63;;;9.10;99.90;;;;;;5094643;28;20098;-75
2021/12/17 10:18:36;;;;;;;19.23;11.88;;;8.90;99.90;;;;;;5129100;27;20043;-74
2021/12/17 10:21:08;;;;;;;17.73;9.88;;;9.30;99.90;;;;;;5094668;28;20048;-76
2021/12/17 10:23:34;;;;;;;16.42;10.18;;;9.00;99.90;;;;;;5095177;28;20452;-75
2021/12/17 10:26:01;;;;;;;21.58;10.35;;;9.00;99.90;;;;;;5076575;28;20047;-75
2021/12/17 10:28:27;;;;;;;16.23;8.75;;;8.90;99.90;;;;;;5074110;28;20512;-75
2021/12/17 10:30:55;;;;;;;13.48;9.07;;;9.40;99.90;;;;;;5091075;28;20132;-75
2021/12/17 10:33:24;;;;;;;17.38;8.52;;;8.90;99.90;;;;;;5090332;28;20468;-75
2021/12/17 10:35:53;;;;;;;11.43;6.85;;;9.10;99.90;;;;;;5090761;28;20044;-75
2021/12/17 10:38:23;;;;;;;12.13;6.75;;;8.90;99.90;;;;;;5089581;28;20044;-75
2021/12/17 10:43:28;;;;;;;8.07;5.03;;;8.90;99.90;;;;;;5093895;28;20051;-75
2021/12/17 10:46:03;;;;;;;9.73;5.20;;;9.40;99.90;;;;;;5092936;28;20044;-77
2021/12/17 10:54:20;;;;;;;7.75;4.57;;;9.60;99.90;;;;;;5092979;28;20640;-73
2021/12/17 10:56:51;;;;;;;9.30;5.82;;;9.10;99.90;;;;;;5104041;28;20386;-74
2021/12/17 10:59:27;;;;;;;11.32;6.90;;;9.50;99.90;;;;;;5107090;27;20495;-73
2021/12/17 11:02:06;;;;;;;10.50;6.10;;;9.10;99.90;;;;;;5092585;28;20527;-73
2021/12/17 11:04:33;;;;;;;11.90;6.75;;;9.20;99.90;;;;;;5087443;28;20047;-74
2021/12/17 11:07:13;;;;;;;9.73;6.38;;;9.50;99.90;;;;;;5089340;28;20058;-74
2021/12/17 11:09:48;;;;;;;9.57;6.13;;;9.50;99.90;;;;;;5089604;28;20501;-73
2021/12/17 11:12:23;;;;;;;11.10;6.85;;;9.60;99.90;;;;;;5073788;28;20052;-73
2021/12/17 11:14:49;;;;;;;;;;;10.50;99.90;;;;;;5088213;28;20090;-73
2021/12/17 11:17:17;;;;;;;10.63;6.85;;;9.10;99.90;;;;;;5090701;28;19916;-73
2021/12/17 11:19:44;;;;;;;11.75;6.97;;;9.60;99.90;;;;;;5090469;28;20123;-73
2021/12/17 11:22:10;;;;;;;10.15;6.28;;;9.40;99.90;;;;;;5090895;28;20051;-73
2021/12/17 11:24:37;;;;;;;9.55;6.53;;;9.10;99.90;;;;;;5091806;28;20397;-74
2021/12/17 11:27:07;;;;;;;12.40;8.25;;;9.10;99.90;;;;;;5092625;28;20439;-70
2021/12/17 11:29:33;;;;;;;10.77;8.18;;;9.50;99.90;;;;;;5092198;28;20130;-71
2021/12/17 11:32:00;;;;;;;10.43;8.13;;;9.20;99.90;;;;;;5091439;28;20119;-72
2021/12/17 11:34:27;;;;;;;9.57;6.68;;;9.20;99.90;;;;;;5092124;28;20507;-75
2021/12/17 11:36:54;;;;;;;11.68;7.50;;;9.20;99.90;;;;;;5092655;28;20044;-76
2021/12/17 11:39:35;;;;;;;10.55;7.80;;;9.40;99.90;;;;;;5092401;28;20044;-77
2021/12/17 11:42:34;;;;;;;11.25;7.57;;;9.90;99.90;;;;;;5088976;28;20165;-73
2021/12/17 11:47:51;;;;;;;9.75;6.82;;;9.50;99.90;;;;;;5087416;28;20051;-74
2021/12/17 11:50:18;;;;;;;9.70;6.68;;;10.50;99.90;;;;;;5088301;28;20044;-73
2021/12/17 11:52:52;;;;;;;11.60;6.40;;;9.20;99.90;;;;;;5089964;28;20043;-73
2021/12/17 11:55:22;;;;;;;9.85;6.70;;;9.60;99.90;;;;;;5061842;28;20520;-73
2021/12/17 11:57:49;;;;;;;10.95;7.30;;;9.20;99.90;;;;;;5068312;28;20119;-73
2021/12/17 12:00:16;;;;;;;10.40;6.65;;;9.10;99.90;;;;;;5071343;28;20036;-73
2021/12/17 12:02:55;;;;;;;10.27;6.53;;;9.70;99.90;;;;;;5088791;28;20134;-72
2021/12/17 12:05:36;;;;;;;11.23;7.10;;;12.00;99.90;;;;;;5089256;28;20040;-73
2021/12/17 12:08:26;;;;;;;12.05;7.55;;;9.10;99.90;;;;;;5089249;28;20124;-73
2021/12/17 12:11:04;;;;;;;12.07;7.03;;;9.50;99.90;;;;;;5072479;28;20052;-73
2021/12/17 12:13:45;;;;;;;9.75;6.55;;;9.30;99.90;;;;;;5069365;28;20800;-73
2021/12/17 12:16:16;;;;;;;10.13;6.30;;;9.30;99.90;;;;;;5052540;28;20037;-72
2021/12/17 12:18:50;;;;;;;10.25;6.57;;;10.50;99.90;;;;;;5068167;28;20151;-73
2021/12/17 12:21:21;;;;;;;12.30;6.13;;;9.50;99.90;;;;;;5087200;28;20135;-72
2021/12/17 12:24:11;;;;;;;10.05;6.03;;;11.40;99.90;;;;;;5087426;28;20123;-72
2021/12/17 12:26:48;;;;;;;10.73;6.70;;;11.20;99.90;;;;;;5088520;28;20412;-73
2021/12/17 12:29:17;;;;;;;7.35;4.65;;;9.50;99.90;;;;;;5068604;28;20058;-73
2021/12/17 12:31:48;;;;;;;8.68;5.28;;;9.20;99.90;;;;;;5083777;28;20056;-73
2021/12/17 12:34:15;;;;;;;10.18;6.43;;;9.50;99.90;;;;;;5067351;28;20029;-72
2021/12/17 12:36:58;;;;;;;10.60;6.32;;;9.40;99.90;;;;;;5056655;28;20123;-72
2021/12/17 12:39:43;;;;;;;7.60;5.22;;;9.90;99.90;;;;;;5051449;28;20033;-73
2021/12/17 12:42:22;;;;;;;8.20;5.63;;;9.60;99.90;;;;;;5047917;28;20512;-73
2021/12/17 12:44:47;;;;;;;8.82;5.45;;;9.60;99.90;;;;;;5049409;28;20056;-74
2021/12/17 12:47:31;;;;;;;9.07;6.50;;;9.20;99.90;;;;;;5066811;28;20036;-74
2021/12/17 12:50:06;;;;;;;9.15;5.32;;;9.40;99.90;;;;;;5068730;28;20040;-74
2021/12/17 12:52:32;;;;;;;;;;;9.60;99.90;;;;;;5068733;28;20082;-74
2021/12/17 12:54:59;;;;;;;9.57;5.22;;;9.30;99.90;;;;;;5058451;28;19978;-74
2021/12/17 12:57:24;;;;;;;9.90;5.53;;;9.30;99.90;;;;;;5049023;28;20062;-75
2021/12/17 12:59:55;;;;;;;9.10;5.50;;;12.90;99.90;;;;;;5047750;28;20067;-74
2021/12/17 13:02:21;;;;;;;8.38;4.30;;;9.40;99.90;;;;;;5048641;28;20114;-74
2021/12/17 13:04:47;;;;;;;6.90;3.15;;;9.30;99.90;;;;;;5045768;28;20090;-73
2021/12/17 13:07:14;;;;;;;6.32;3.53;;;9.90;99.90;;;;;;5047321;28;20052;-71
2021/12/17 13:09:44;;;;;;;7.05;4.30;;;9.40;99.90;;;;;;5048916;28;20457;-73
2021/12/17 13:12:10;;;;;;;8.50;4.72;;;11.50;99.90;;;;;;5048038;28;20045;-72
2021/12/17 13:14:46;;;;;;;9.50;4.88;;;9.50;99.90;;;;;;5049974;28;20115;-72
2021/12/17 13:22:55;;;;;;;8.77;5.80;;;9.60;99.90;;;;;;5051687;28;20482;-74
2021/12/17 13:25:31;;;;;;;8.55;5.75;;;9.60;99.90;;;;;;5070472;28;20039;-73
2021/12/17 13:27:57;;;;;;;7.70;4.95;;;9.60;99.90;;;;;;5062270;28;20123;-73
2021/12/17 13:30:27;;;;;;;9.50;4.57;;;9.90;99.90;;;;;;5055618;28;20076;-73
2021/12/17 13:32:53;;;;;;;7.00;4.30;;;9.40;99.90;;;;;;5070729;28;20044;-74
2021/12/17 13:35:22;;;;;;;7.50;4.55;;;9.50;99.90;;;;;;5088173;28;20504;-73
2021/12/17 13:37:52;;;;;;;12.43;5.32;;;10.00;99.90;;;;;;5073571;28;20396;-70
2021/12/17 13:40:23;;;;;;;8.95;4.85;;;9.70;99.90;;;;;;5090284;28;20044;-72
2021/12/17 13:42:49;;;;;;;7.88;4.78;;;9.30;99.90;;;;;;5076447;28;20757;-72
2021/12/17 13:45:25;;;;;;;7.28;4.70;;;9.70;99.90;;;;;;5090783;28;20040;-75
2021/12/17 13:47:54;;;;;;;9.15;5.07;;;9.80;99.90;;;;;;5090593;28;20046;-76
2021/12/17 13:50:21;;;;;;;8.80;5.32;;;9.60;99.90;;;;;;5079093;28;20044;-72
2021/12/17 13:52:49;;;;;;;9.40;5.28;;;9.70;99.90;;;;;;5053276;28;20036;-76
2021/12/17 13:55:19;;;;;;;7.55;5.28;;;9.40;99.90;;;;;;5069227;28;20041;-75
2021/12/17 13:57:46;;;;;;;6.90;3.83;;;9.50;99.90;;;;;;5077380;28;20052;-75
2021/12/17 14:00:17;;;;;;;8.48;4.53;;;9.90;99.90;;;;;;5071222;28;20080;-75
2021/12/17 14:02:45;;;;;;;7.68;4.35;;;9.60;99.90;;;;;;5087740;28;20101;-74
2021/12/17 14:05:28;;;;;;;8.73;4.80;;;9.30;99.90;;;;;;5088191;28;20044;-74
2021/12/17 14:07:59;;;;;;;8.23;4.90;;;10.50;99.90;;;;;;5071289;28;20056;-75
2021/12/17 14:10:30;;;;;;;9.50;5.63;;;9.60;99.90;;;;;;5087694;28;20047;-75
2021/12/17 14:12:57;;;;;;;9.30;4.90;;;9.30;99.90;;;;;;5090024;28;20048;-75
2021/12/17 14:15:26;;;;;;;8.63;5.25;;;12.30;99.90;;;;;;5090414;28;20048;-75
2021/12/17 14:17:57;;;;;;;8.95;5.95;;;12.50;99.90;;;;;;5074223;28;20400;-75
2021/12/17 14:20:26;;;;;;;9.07;4.78;;;9.70;99.90;;;;;;5091537;28;20415;-75
2021/12/17 14:23:09;;;;;;;7.72;4.85;;;9.30;99.90;;;;;;5091730;28;20506;-75
2021/12/17 14:25:42;;;;;;;6.50;3.92;;;9.60;99.90;;;;;;5064023;28;20036;-75
2021/12/17 14:28:18;;;;;;;7.63;4.63;;;9.50;99.90;;;;;;5055115;28;20057;-75
2021/12/17 14:31:00;;;;;;;8.38;4.88;;;12.10;99.90;;;;;;5079094;28;20177;-75
2021/12/17 14:33:31;;;;;;;8.85;4.95;;;9.60;99.90;;;;;;5074361;28;20044;-74
2021/12/17 14:36:04;;;;;;;8.25;5.03;;;9.30;99.90;;;;;;5091409;28;20123;-74
2021/12/17 14:38:48;;;;;;;10.18;5.95;;;9.30;99.90;;;;;;5091016;28;20106;-74
2021/12/17 14:41:23;;;;;;;23.20;15.13;;;9.60;99.90;;;;;;5091197;28;20054;-75
2021/12/17 14:44:07;;;;;;;55.28;33.80;;;9.60;99.90;;;;;;5091343;28;20396;-74
2021/12/17 14:46:56;;;;;;;34.00;19.38;;;9.40;99.90;;;;;;5072482;28;20361;-75
2021/12/17 15:04:47;;;;;;;10.20;6.60;;;;;;;;;;5090743;28;20063;-75
2021/12/17 15:07:13;;;;;;;11.15;8.35;;;9.50;99.90;;;;;;5072969;28;20044;-75
2021/12/17 15:09:45;;;;;;;13.85;8.90;;;9.60;99.90;;;;;;5091121;28;20051;-76
2021/12/17 15:14:55;;;;;;;7.70;5.37;;;9.50;99.90;;;;;;5088657;28;20040;-75
2021/12/17 15:17:21;;;;;;;11.35;6.03;;;10.10;99.90;;;;;;5090560;28;20051;-75
2021/12/17 15:19:47;;;;;;;10.13;6.53;;;9.80;99.90;;;;;;5089517;28;20051;-76
2021/12/17 15:22:13;;;;;;;9.35;5.32;;;9.40;99.90;;;;;;5073159;28;20047;-74
2021/12/17 15:24:38;;;;;;;10.43;6.78;;;10.60;99.90;;;;;;5089331;28;20044;-74
2021/12/17 15:27:05;;;;;;;9.45;5.90;;;9.60;99.90;;;;;;5089040;28;20377;-71
2021/12/17 15:29:32;;;;;;;11.52;6.72;;;9.40;99.90;;;;;;5092060;28;20044;-75
2021/12/17 16:09:34;;;;;;;20.02;10.57;;;9.10;99.90;;;;;;5107780;28;20411;-76
2021/12/17 16:16:48;;;;;;;16.48;10.20;;;;;;;;;;5072261;28;20054;-73
2021/12/17 16:22:51;;;;;;;22.75;10.18;;;8.70;99.90;;;;;;5074015;28;20036;-72
2021/12/17 16:25:16;;;;;;;21.10;11.05;;;9.40;99.90;;;;;;5075203;28;20484;-72
2021/12/17 16:27:42;;;;;;;22.05;10.05;;;;;;;;;;5092169;28;20056;-73
2021/12/17 16:30:09;;;;;;;16.67;9.77;;;8.90;99.90;;;;;;5074367;28;20051;-73
2021/12/17 16:32:35;;;;;;;21.48;10.18;;;9.10;99.90;;;;;;5091993;28;20042;-72
2021/12/17 16:35:01;;;;;;;18.48;10.02;;;9.00;99.90;;;;;;5091696;28;20055;-72
2021/12/17 16:37:27;;;;;;;24.42;10.02;;;8.80;99.90;;;;;;5074937;28;20047;-71
2021/12/17 16:39:53;;;;;;;14.07;9.10;;;;;;;;;;5091721;28;20040;-71
2021/12/17 16:42:19;;;;;;;19.23;9.55;;;8.80;99.90;;;;;;5092070;28;20071;-72
2021/12/17 16:47:34;;;;;;;13.52;7.78;;;9.10;99.90;;;;;;5052389;28;20070;-73
2021/12/17 16:50:01;;;;;;;14.68;9.00;;;8.60;99.90;;;;;;5091564;28;20043;-70
2021/12/17 16:52:28;;;;;;;18.27;8.82;;;8.80;99.90;;;;;;5074192;28;20096;-74
2021/12/17 16:54:55;;;;;;;13.75;8.18;;;9.10;99.90;;;;;;5074939;28;20039;-72
2021/12/17 16:57:22;;;;;;;16.10;8.88;;;;;;;;;;5091818;28;20079;-72
2021/12/17 16:59:48;;;;;;;18.30;10.30;;;;;;;;;;5067588;28;20155;-73
2021/12/17 17:02:14;;;;;;;14.98;8.80;;;9.00;99.90;;;;;;5092000;28;20050;-74